QFA28 SCEL-YSSY
Flight info
| Callsign | QFA28 |
|---|---|
| Flight time | N/A |
| Altitude | 31000 |
| Route | ANGOD8B ANGOD UQ803 SUMKO/N0484F310 UT115 VLD DCT 47S077W 54S082W/N0483F330 56S084W 61S090W/N0475F320 64S096W/N0472F340 68S108W 70S116W 71S131W 71S140W 70S150W/N0482F360 69S160W 67S170W 63S180W/N0477F380 57S170E 51S163E/N0465F400 45S158E DCT 39S54 DCT MARLN |
| Aircraft | B742/H-SDFHIRWXY/L |
Departure
| Time | N/A |
|---|---|
| Airport | Comodoro Arturo Merino Benítez International Airport (SCEL) |
Arrival
| Time | 2026-04-21 10:14 |
|---|---|
| Airport | Sydney Kingsford Smith International Airport (YSSY) |
| Time | Latitude | Longitude | Altitude | Speed | Heading |
|---|---|---|---|---|---|
| 2026-04-21 04:36 | -66.88501 | -170.36215 | 30766 ft | 438 kts | 304° |
| 2026-04-21 04:37 | -66.84772 | -170.48029 | 30773 ft | 439 kts | 304° |
| 2026-04-21 04:37 | -66.80930 | -170.60043 | 30774 ft | 438 kts | 305° |
| 2026-04-21 04:38 | -66.77079 | -170.71899 | 30776 ft | 438 kts | 306° |
| 2026-04-21 04:38 | -66.73160 | -170.83739 | 30775 ft | 439 kts | 306° |
| 2026-04-21 04:39 | -66.69403 | -170.95160 | 30774 ft | 439 kts | 306° |
| 2026-04-21 04:39 | -66.65537 | -171.06929 | 30775 ft | 439 kts | 306° |
| 2026-04-21 04:40 | -66.61646 | -171.18735 | 30777 ft | 439 kts | 306° |
| 2026-04-21 04:40 | -66.57724 | -171.30579 | 30776 ft | 439 kts | 306° |
| 2026-04-21 04:41 | -66.53800 | -171.42364 | 30778 ft | 440 kts | 306° |
| 2026-04-21 04:41 | -66.49886 | -171.54059 | 30781 ft | 439 kts | 306° |
| 2026-04-21 04:42 | -66.45969 | -171.65698 | 30758 ft | 439 kts | 307° |
| 2026-04-21 04:42 | -66.41999 | -171.77200 | 30819 ft | 438 kts | 307° |
| 2026-04-21 04:42 | -66.39997 | -171.82982 | 30979 ft | 439 kts | 307° |
| 2026-04-21 04:43 | -66.38015 | -171.88734 | 31145 ft | 441 kts | 307° |
| 2026-04-21 04:43 | -66.36029 | -171.94511 | 31331 ft | 443 kts | 307° |
| 2026-04-21 04:43 | -66.34035 | -172.00311 | 31539 ft | 440 kts | 307° |
| 2026-04-21 04:43 | -66.32053 | -172.06068 | 31726 ft | 437 kts | 307° |
| 2026-04-21 04:44 | -66.30079 | -172.11793 | 31907 ft | 437 kts | 307° |
| 2026-04-21 04:44 | -66.28116 | -172.17480 | 32084 ft | 439 kts | 307° |
| 2026-04-21 04:44 | -66.26146 | -172.23175 | 32261 ft | 441 kts | 307° |
| 2026-04-21 04:44 | -66.24125 | -172.29002 | 32440 ft | 444 kts | 307° |
| 2026-04-21 04:45 | -66.22111 | -172.34793 | 32618 ft | 445 kts | 307° |
| 2026-04-21 04:45 | -66.20098 | -172.40559 | 32825 ft | 443 kts | 307° |
| 2026-04-21 04:45 | -66.18113 | -172.46231 | 33029 ft | 440 kts | 307° |
| 2026-04-21 04:45 | -66.16114 | -172.51930 | 33234 ft | 440 kts | 306° |
| 2026-04-21 04:46 | -66.14121 | -172.57599 | 33438 ft | 441 kts | 307° |
| 2026-04-21 04:46 | -66.12081 | -172.63386 | 33643 ft | 442 kts | 307° |
| 2026-04-21 04:46 | -66.10088 | -172.68991 | 33843 ft | 443 kts | 308° |
| 2026-04-21 04:46 | -66.08037 | -172.74644 | 34046 ft | 443 kts | 308° |
| 2026-04-21 04:47 | -66.05973 | -172.80328 | 34245 ft | 443 kts | 308° |
| 2026-04-21 04:47 | -66.03941 | -172.85947 | 34441 ft | 444 kts | 308° |
| 2026-04-21 04:47 | -66.01896 | -172.91620 | 34637 ft | 443 kts | 307° |
| 2026-04-21 04:47 | -65.99863 | -172.97270 | 34820 ft | 443 kts | 307° |
| 2026-04-21 04:48 | -65.97818 | -173.02949 | 35000 ft | 443 kts | 307° |
| 2026-04-21 04:48 | -65.95802 | -173.08543 | 35177 ft | 442 kts | 307° |
| 2026-04-21 04:48 | -65.93787 | -173.14117 | 35357 ft | 442 kts | 307° |
| 2026-04-21 04:48 | -65.91747 | -173.19754 | 35536 ft | 441 kts | 307° |
| 2026-04-21 04:49 | -65.89712 | -173.25363 | 35706 ft | 440 kts | 307° |
| 2026-04-21 04:49 | -65.87676 | -173.30965 | 35884 ft | 438 kts | 307° |
| 2026-04-21 04:49 | -65.86349 | -173.34608 | 35998 ft | 438 kts | 307° |
| 2026-04-21 04:49 | -65.83648 | -173.42004 | 36222 ft | 435 kts | 308° |
| 2026-04-21 04:50 | -65.82310 | -173.45657 | 36336 ft | 434 kts | 308° |
| 2026-04-21 04:50 | -65.79643 | -173.52919 | 36579 ft | 431 kts | 308° |
| 2026-04-21 04:50 | -65.78323 | -173.56503 | 36702 ft | 430 kts | 308° |
| 2026-04-21 04:50 | -65.75693 | -173.63626 | 36946 ft | 426 kts | 308° |
| 2026-04-21 04:51 | -65.74352 | -173.67238 | 37070 ft | 425 kts | 309° |
| 2026-04-21 04:51 | -65.71714 | -173.74187 | 37310 ft | 421 kts | 309° |
| 2026-04-21 04:51 | -65.69738 | -173.79382 | 37489 ft | 417 kts | 309° |
| 2026-04-21 04:51 | -65.67803 | -173.84492 | 37665 ft | 414 kts | 309° |
| 2026-04-21 04:52 | -65.65861 | -173.89642 | 37844 ft | 409 kts | 309° |
| 2026-04-21 04:52 | -65.63972 | -173.94661 | 37990 ft | 406 kts | 309° |
| 2026-04-21 04:52 | -65.62071 | -173.99713 | 38085 ft | 405 kts | 309° |
| 2026-04-21 04:53 | -65.58312 | -174.09677 | 38252 ft | 401 kts | 309° |
| 2026-04-21 04:53 | -65.56451 | -174.14590 | 38353 ft | 400 kts | 309° |
| 2026-04-21 04:53 | -65.54580 | -174.19524 | 38467 ft | 397 kts | 309° |
| 2026-04-21 04:53 | -65.52724 | -174.24400 | 38579 ft | 395 kts | 309° |
| 2026-04-21 04:54 | -65.50891 | -174.29207 | 38689 ft | 393 kts | 309° |
| 2026-04-21 04:54 | -65.47209 | -174.38831 | 38772 ft | 392 kts | 309° |
| 2026-04-21 04:55 | -65.43522 | -174.48427 | 38773 ft | 393 kts | 309° |
| 2026-04-21 04:55 | -65.39819 | -174.58019 | 38772 ft | 393 kts | 309° |
| 2026-04-21 04:56 | -65.36213 | -174.67307 | 38771 ft | 395 kts | 310° |
| 2026-04-21 04:56 | -65.32430 | -174.76808 | 38771 ft | 396 kts | 310° |
| 2026-04-21 04:57 | -65.28683 | -174.86293 | 38772 ft | 397 kts | 310° |
| 2026-04-21 04:57 | -65.24876 | -174.95960 | 38767 ft | 399 kts | 310° |
| 2026-04-21 04:58 | -65.21090 | -175.05548 | 38767 ft | 400 kts | 310° |
| 2026-04-21 04:58 | -65.17281 | -175.15150 | 38770 ft | 402 kts | 310° |
| 2026-04-21 04:59 | -65.13433 | -175.24812 | 38774 ft | 404 kts | 310° |
| 2026-04-21 04:59 | -65.09560 | -175.34492 | 38773 ft | 405 kts | 310° |
| 2026-04-21 05:00 | -65.05705 | -175.44090 | 38774 ft | 407 kts | 310° |
| 2026-04-21 05:00 | -64.99796 | -175.58711 | 38771 ft | 410 kts | 310° |
| 2026-04-21 05:01 | -64.95846 | -175.68405 | 38765 ft | 413 kts | 311° |
| 2026-04-21 05:01 | -64.91822 | -175.78050 | 38771 ft | 415 kts | 311° |
| 2026-04-21 05:02 | -64.87801 | -175.87756 | 38768 ft | 418 kts | 311° |
| 2026-04-21 05:02 | -64.83735 | -175.97610 | 38765 ft | 421 kts | 311° |
| 2026-04-21 05:03 | -64.79679 | -176.07408 | 38763 ft | 424 kts | 311° |
| 2026-04-21 05:03 | -64.75556 | -176.17325 | 38747 ft | 427 kts | 311° |
| 2026-04-21 05:04 | -64.72088 | -176.25633 | 38741 ft | 430 kts | 311° |
| 2026-04-21 05:04 | -64.67210 | -176.37262 | 38736 ft | 434 kts | 311° |
| 2026-04-21 05:05 | -64.63713 | -176.45563 | 38735 ft | 436 kts | 311° |
| 2026-04-21 05:05 | -64.59452 | -176.55632 | 38734 ft | 439 kts | 311° |
| 2026-04-21 05:06 | -64.55145 | -176.65759 | 38734 ft | 442 kts | 312° |
| 2026-04-21 05:06 | -64.50751 | -176.75842 | 38739 ft | 446 kts | 313° |
| 2026-04-21 05:07 | -64.46358 | -176.85925 | 38734 ft | 449 kts | 312° |
| 2026-04-21 05:07 | -64.41177 | -176.97876 | 38732 ft | 453 kts | 312° |
| 2026-04-21 05:08 | -64.36710 | -177.08164 | 38727 ft | 456 kts | 312° |
| 2026-04-21 05:08 | -64.32263 | -177.18355 | 38718 ft | 441 kts | 312° |
| 2026-04-21 05:09 | -64.27988 | -177.28111 | 38721 ft | 434 kts | 312° |
| 2026-04-21 05:09 | -64.23669 | -177.37932 | 38714 ft | 437 kts | 312° |
| 2026-04-21 05:10 | -64.19331 | -177.47746 | 38709 ft | 441 kts | 312° |
| 2026-04-21 05:10 | -64.14969 | -177.57571 | 38698 ft | 444 kts | 312° |
| 2026-04-21 05:11 | -64.10525 | -177.67516 | 38696 ft | 448 kts | 314° |
| 2026-04-21 05:11 | -64.06024 | -177.77338 | 38693 ft | 451 kts | 314° |
| 2026-04-21 05:12 | -64.01516 | -177.87216 | 38693 ft | 451 kts | 313° |
| 2026-04-21 05:12 | -63.97047 | -177.97047 | 38689 ft | 447 kts | 313° |
| 2026-04-21 05:13 | -63.92608 | -178.06801 | 38686 ft | 446 kts | 313° |
| 2026-04-21 05:13 | -63.88263 | -178.16313 | 38686 ft | 449 kts | 313° |
| 2026-04-21 05:14 | -63.83816 | -178.26013 | 38685 ft | 447 kts | 313° |
| 2026-04-21 05:14 | -63.79337 | -178.35728 | 38684 ft | 443 kts | 313° |
| 2026-04-21 05:15 | -63.74901 | -178.45308 | 38685 ft | 444 kts | 313° |
| 2026-04-21 05:15 | -63.70453 | -178.54868 | 38683 ft | 444 kts | 313° |
| 2026-04-21 05:16 | -63.65997 | -178.64398 | 38682 ft | 444 kts | 313° |
| 2026-04-21 05:16 | -63.61504 | -178.73810 | 38685 ft | 444 kts | 315° |
| 2026-04-21 05:17 | -63.56990 | -178.83217 | 38687 ft | 444 kts | 314° |
| 2026-04-21 05:17 | -63.52496 | -178.92644 | 38682 ft | 444 kts | 314° |
| 2026-04-21 05:18 | -63.48017 | -179.02037 | 38686 ft | 444 kts | 314° |
| 2026-04-21 05:18 | -63.43521 | -179.11433 | 38686 ft | 444 kts | 314° |
| 2026-04-21 05:19 | -63.39005 | -179.20836 | 38684 ft | 444 kts | 314° |
| 2026-04-21 05:19 | -63.34513 | -179.30144 | 38691 ft | 444 kts | 314° |
| 2026-04-21 05:20 | -63.30007 | -179.39442 | 38689 ft | 445 kts | 314° |
| 2026-04-21 05:20 | -63.25496 | -179.48706 | 38689 ft | 444 kts | 314° |
| 2026-04-21 05:21 | -63.20940 | -179.57884 | 38693 ft | 444 kts | 316° |
| 2026-04-21 05:21 | -63.16368 | -179.67027 | 38699 ft | 445 kts | 315° |
| 2026-04-21 05:22 | -63.11818 | -179.76186 | 38697 ft | 445 kts | 315° |
| 2026-04-21 05:22 | -63.07265 | -179.85356 | 38700 ft | 443 kts | 315° |
| 2026-04-21 05:23 | -63.02759 | -179.94403 | 38704 ft | 443 kts | 315° |
| 2026-04-21 05:23 | -62.97999 | 179.96895 | 38710 ft | 445 kts | 320° |
| 2026-04-21 05:24 | -62.93617 | 179.87589 | 38711 ft | 443 kts | 310° |
| 2026-04-21 05:24 | -62.89362 | 179.77736 | 38714 ft | 445 kts | 311° |
| 2026-04-21 05:25 | -62.84992 | 179.68120 | 38719 ft | 445 kts | 313° |
| 2026-04-21 05:25 | -62.80572 | 179.58676 | 38720 ft | 444 kts | 313° |
| 2026-04-21 05:26 | -62.76144 | 179.49329 | 38720 ft | 445 kts | 313° |
| 2026-04-21 05:26 | -62.71693 | 179.39993 | 38727 ft | 445 kts | 313° |
| 2026-04-21 05:27 | -62.67221 | 179.30707 | 38729 ft | 445 kts | 314° |
| 2026-04-21 05:27 | -62.62715 | 179.21542 | 38737 ft | 444 kts | 314° |
| 2026-04-21 05:28 | -62.58246 | 179.12390 | 38739 ft | 444 kts | 314° |
| 2026-04-21 05:28 | -62.53785 | 179.03226 | 38735 ft | 444 kts | 314° |
| 2026-04-21 05:29 | -62.49314 | 178.94058 | 38736 ft | 444 kts | 314° |
| 2026-04-21 05:29 | -62.44842 | 178.84926 | 38737 ft | 444 kts | 314° |
| 2026-04-21 05:30 | -62.40367 | 178.75827 | 38747 ft | 444 kts | 314° |
| 2026-04-21 05:30 | -62.35905 | 178.66791 | 38750 ft | 445 kts | 314° |
| 2026-04-21 05:31 | -62.31383 | 178.57672 | 38756 ft | 446 kts | 314° |
| 2026-04-21 05:31 | -62.26886 | 178.48645 | 38767 ft | 446 kts | 314° |
| 2026-04-21 05:32 | -62.22366 | 178.39610 | 38764 ft | 444 kts | 314° |
| 2026-04-21 05:32 | -62.17871 | 178.30718 | 38773 ft | 443 kts | 315° |
| 2026-04-21 05:33 | -62.13327 | 178.21902 | 38769 ft | 443 kts | 315° |
| 2026-04-21 05:33 | -62.08771 | 178.13001 | 38766 ft | 446 kts | 315° |
| 2026-04-21 05:34 | -62.04959 | 178.05531 | 38767 ft | 448 kts | 315° |
| 2026-04-21 05:34 | -62.00395 | 177.96603 | 38769 ft | 447 kts | 315° |
| 2026-04-21 05:35 | -61.95842 | 177.87729 | 38776 ft | 444 kts | 315° |
| 2026-04-21 05:35 | -61.91327 | 177.78963 | 38780 ft | 443 kts | 315° |
| 2026-04-21 05:36 | -61.86745 | 177.70099 | 38784 ft | 445 kts | 315° |
| 2026-04-21 05:36 | -61.82195 | 177.61333 | 38788 ft | 446 kts | 314° |
| 2026-04-21 05:37 | -61.77633 | 177.52583 | 38790 ft | 447 kts | 314° |
| 2026-04-21 05:37 | -61.73032 | 177.43800 | 38790 ft | 445 kts | 314° |
| 2026-04-21 05:38 | -61.67719 | 177.33707 | 38796 ft | 443 kts | 316° |
| 2026-04-21 05:38 | -61.63089 | 177.25127 | 38800 ft | 445 kts | 316° |
| 2026-04-21 05:39 | -61.58445 | 177.16498 | 38802 ft | 447 kts | 316° |
| 2026-04-21 05:39 | -61.53847 | 177.07912 | 38806 ft | 447 kts | 315° |
| 2026-04-21 05:40 | -61.49194 | 176.99228 | 38805 ft | 446 kts | 315° |
| 2026-04-21 05:40 | -61.44591 | 176.90666 | 38810 ft | 445 kts | 315° |
| 2026-04-21 05:41 | -61.39957 | 176.82079 | 38813 ft | 445 kts | 315° |
| 2026-04-21 05:41 | -61.35352 | 176.73583 | 38814 ft | 446 kts | 315° |
| 2026-04-21 05:42 | -61.30702 | 176.65037 | 38819 ft | 446 kts | 315° |
| 2026-04-21 05:42 | -61.26057 | 176.56537 | 38819 ft | 446 kts | 315° |
| 2026-04-21 05:43 | -61.21444 | 176.48128 | 38827 ft | 446 kts | 315° |
| 2026-04-21 05:43 | -61.16792 | 176.39684 | 38830 ft | 447 kts | 315° |
| 2026-04-21 05:44 | -61.12096 | 176.31235 | 38835 ft | 448 kts | 317° |
| 2026-04-21 05:44 | -61.07349 | 176.22871 | 38839 ft | 449 kts | 317° |
| 2026-04-21 05:45 | -61.02646 | 176.14525 | 38840 ft | 449 kts | 316° |
| 2026-04-21 05:45 | -60.97949 | 176.06163 | 38830 ft | 448 kts | 316° |
| 2026-04-21 05:46 | -60.93249 | 175.97812 | 38842 ft | 448 kts | 316° |
| 2026-04-21 05:46 | -60.88549 | 175.89485 | 38856 ft | 447 kts | 316° |
| 2026-04-21 05:47 | -60.83872 | 175.81227 | 38859 ft | 447 kts | 316° |
| 2026-04-21 05:47 | -60.79171 | 175.72963 | 38862 ft | 447 kts | 316° |
| 2026-04-21 05:48 | -60.74451 | 175.64702 | 38866 ft | 448 kts | 316° |
| 2026-04-21 05:48 | -60.69882 | 175.56737 | 38871 ft | 447 kts | 316° |
| 2026-04-21 05:49 | -60.65143 | 175.48511 | 38874 ft | 447 kts | 316° |
| 2026-04-21 05:49 | -60.60425 | 175.40350 | 38880 ft | 448 kts | 316° |
| 2026-04-21 05:50 | -60.55656 | 175.32161 | 38881 ft | 449 kts | 317° |
| 2026-04-21 05:50 | -60.50872 | 175.24130 | 38883 ft | 450 kts | 317° |
| 2026-04-21 05:51 | -60.46074 | 175.16028 | 38891 ft | 448 kts | 317° |
| 2026-04-21 05:51 | -60.41298 | 175.07928 | 38894 ft | 448 kts | 317° |
| 2026-04-21 05:52 | -60.36540 | 174.99867 | 38890 ft | 447 kts | 317° |
| 2026-04-21 05:52 | -60.31788 | 174.91843 | 38894 ft | 449 kts | 317° |
| 2026-04-21 05:53 | -60.26977 | 174.83751 | 38889 ft | 450 kts | 317° |
| 2026-04-21 05:53 | -60.22187 | 174.75728 | 38884 ft | 449 kts | 317° |
| 2026-04-21 05:54 | -60.17582 | 174.68043 | 38888 ft | 448 kts | 317° |
| 2026-04-21 05:54 | -60.12773 | 174.60051 | 38891 ft | 448 kts | 317° |
| 2026-04-21 05:55 | -60.07997 | 174.52142 | 38895 ft | 448 kts | 317° |
| 2026-04-21 05:55 | -60.03208 | 174.44243 | 38898 ft | 450 kts | 317° |
| 2026-04-21 05:56 | -59.98377 | 174.36305 | 38901 ft | 452 kts | 317° |
| 2026-04-21 05:56 | -59.93526 | 174.28476 | 38903 ft | 450 kts | 318° |
| 2026-04-21 05:57 | -59.88663 | 174.20688 | 38907 ft | 449 kts | 318° |
| 2026-04-21 05:57 | -59.83809 | 174.12851 | 38920 ft | 449 kts | 318° |
| 2026-04-21 05:58 | -59.79001 | 174.05081 | 38920 ft | 449 kts | 318° |
| 2026-04-21 05:58 | -59.74159 | 173.97279 | 38926 ft | 450 kts | 318° |
| 2026-04-21 05:59 | -59.69326 | 173.89523 | 38939 ft | 450 kts | 318° |
| 2026-04-21 06:00 | -59.62029 | 173.77866 | 38955 ft | 450 kts | 318° |
| 2026-04-21 06:00 | -59.57168 | 173.70137 | 38961 ft | 452 kts | 318° |
| 2026-04-21 06:01 | -59.52303 | 173.62431 | 38962 ft | 452 kts | 318° |
| 2026-04-21 06:01 | -59.47388 | 173.54680 | 38964 ft | 452 kts | 318° |
| 2026-04-21 06:02 | -59.42510 | 173.47014 | 38967 ft | 451 kts | 318° |
| 2026-04-21 06:02 | -59.37629 | 173.39374 | 38969 ft | 452 kts | 317° |
| 2026-04-21 06:03 | -59.32728 | 173.31763 | 38975 ft | 451 kts | 319° |
| 2026-04-21 06:03 | -59.27753 | 173.24197 | 38980 ft | 452 kts | 319° |
| 2026-04-21 06:04 | -59.22842 | 173.16675 | 38992 ft | 453 kts | 319° |
| 2026-04-21 06:04 | -59.17914 | 173.09099 | 38988 ft | 453 kts | 318° |
| 2026-04-21 06:05 | -59.12960 | 173.01495 | 38990 ft | 452 kts | 318° |
| 2026-04-21 06:05 | -59.08043 | 172.93970 | 38995 ft | 452 kts | 318° |
| 2026-04-21 06:06 | -59.03124 | 172.86469 | 38996 ft | 452 kts | 318° |
| 2026-04-21 06:06 | -58.98163 | 172.78934 | 38998 ft | 453 kts | 318° |
| 2026-04-21 06:07 | -58.93225 | 172.71460 | 39001 ft | 454 kts | 318° |
| 2026-04-21 06:07 | -58.88239 | 172.63942 | 38993 ft | 454 kts | 319° |
| 2026-04-21 06:08 | -58.83290 | 172.56505 | 38990 ft | 454 kts | 319° |
| 2026-04-21 06:08 | -58.78318 | 172.49063 | 38995 ft | 453 kts | 318° |
| 2026-04-21 06:09 | -58.73323 | 172.41615 | 38998 ft | 454 kts | 318° |
| 2026-04-21 06:09 | -58.68332 | 172.34204 | 39000 ft | 454 kts | 319° |
| 2026-04-21 06:10 | -58.63313 | 172.26923 | 39004 ft | 455 kts | 320° |
| 2026-04-21 06:10 | -58.58284 | 172.19617 | 39005 ft | 455 kts | 319° |
| 2026-04-21 06:11 | -58.53305 | 172.12337 | 39008 ft | 454 kts | 319° |
| 2026-04-21 06:11 | -58.48306 | 172.05028 | 39016 ft | 454 kts | 319° |
| 2026-04-21 06:12 | -58.43286 | 171.97710 | 39017 ft | 455 kts | 319° |
| 2026-04-21 06:12 | -58.38256 | 171.90404 | 39021 ft | 457 kts | 319° |
| 2026-04-21 06:13 | -58.33199 | 171.83084 | 39026 ft | 459 kts | 319° |
| 2026-04-21 06:13 | -58.28141 | 171.75790 | 39030 ft | 459 kts | 319° |
| 2026-04-21 06:14 | -58.23068 | 171.68504 | 39032 ft | 458 kts | 319° |
| 2026-04-21 06:14 | -58.18031 | 171.61296 | 39037 ft | 457 kts | 319° |
| 2026-04-21 06:15 | -58.12966 | 171.54073 | 39041 ft | 456 kts | 319° |
| 2026-04-21 06:15 | -58.07922 | 171.46905 | 39051 ft | 457 kts | 319° |
| 2026-04-21 06:16 | -58.02837 | 171.39705 | 39050 ft | 459 kts | 319° |
| 2026-04-21 06:16 | -57.97742 | 171.32538 | 39055 ft | 460 kts | 320° |
| 2026-04-21 06:17 | -57.92565 | 171.25418 | 39054 ft | 461 kts | 320° |
| 2026-04-21 06:17 | -57.87460 | 171.18349 | 39056 ft | 460 kts | 320° |
| 2026-04-21 06:18 | -57.83197 | 171.12416 | 39060 ft | 461 kts | 320° |
| 2026-04-21 06:18 | -57.77206 | 171.04088 | 39059 ft | 461 kts | 320° |
| 2026-04-21 06:19 | -57.72912 | 170.98138 | 39062 ft | 461 kts | 320° |
| 2026-04-21 06:19 | -57.67778 | 170.91048 | 39069 ft | 460 kts | 320° |
| 2026-04-21 06:20 | -57.62660 | 170.84004 | 39069 ft | 461 kts | 320° |
| 2026-04-21 06:20 | -57.57494 | 170.76921 | 39075 ft | 461 kts | 320° |
| 2026-04-21 06:21 | -57.52350 | 170.69894 | 39076 ft | 461 kts | 319° |
| 2026-04-21 06:21 | -57.46350 | 170.61728 | 39079 ft | 461 kts | 319° |
| 2026-04-21 06:22 | -57.41195 | 170.54739 | 39086 ft | 463 kts | 320° |
| 2026-04-21 06:22 | -57.35989 | 170.47707 | 39089 ft | 463 kts | 320° |
| 2026-04-21 06:23 | -57.30790 | 170.40712 | 39095 ft | 463 kts | 319° |
| 2026-04-21 06:23 | -57.25620 | 170.33783 | 39093 ft | 463 kts | 320° |
| 2026-04-21 06:24 | -57.20361 | 170.26898 | 39100 ft | 465 kts | 320° |
| 2026-04-21 06:24 | -57.15102 | 170.19987 | 39104 ft | 467 kts | 320° |
| 2026-04-21 06:25 | -57.09835 | 170.13029 | 39110 ft | 466 kts | 320° |
| 2026-04-21 06:25 | -57.04610 | 170.06126 | 39118 ft | 466 kts | 320° |
| 2026-04-21 06:26 | -56.99332 | 169.99353 | 39118 ft | 468 kts | 325° |
| 2026-04-21 06:26 | -56.94030 | 169.92575 | 39138 ft | 462 kts | 316° |
| 2026-04-21 06:27 | -56.89086 | 169.85143 | 39146 ft | 461 kts | 316° |
| 2026-04-21 06:27 | -56.84082 | 169.77913 | 39144 ft | 462 kts | 317° |
| 2026-04-21 06:28 | -56.78963 | 169.70741 | 39148 ft | 464 kts | 317° |
| 2026-04-21 06:28 | -56.73864 | 169.63686 | 39155 ft | 465 kts | 317° |
| 2026-04-21 06:29 | -56.68711 | 169.56595 | 39155 ft | 465 kts | 317° |
| 2026-04-21 06:29 | -56.63570 | 169.49547 | 39158 ft | 464 kts | 317° |
| 2026-04-21 06:30 | -56.58412 | 169.42499 | 39153 ft | 465 kts | 317° |
| 2026-04-21 06:30 | -56.53253 | 169.35472 | 39160 ft | 466 kts | 317° |
| 2026-04-21 06:31 | -56.48072 | 169.28554 | 39155 ft | 466 kts | 319° |
| 2026-04-21 06:31 | -56.42882 | 169.21651 | 39161 ft | 464 kts | 319° |
| 2026-04-21 06:32 | -56.37708 | 169.14717 | 39171 ft | 463 kts | 318° |
| 2026-04-21 06:32 | -56.32578 | 169.07835 | 39173 ft | 464 kts | 318° |
| 2026-04-21 06:33 | -56.27410 | 169.00917 | 39176 ft | 467 kts | 318° |
| 2026-04-21 06:33 | -56.22176 | 168.93935 | 39175 ft | 470 kts | 318° |
| 2026-04-21 06:34 | -56.16916 | 168.86949 | 39181 ft | 468 kts | 318° |
| 2026-04-21 06:34 | -56.11744 | 168.80100 | 39186 ft | 467 kts | 318° |
| 2026-04-21 06:35 | -56.06507 | 168.73186 | 39181 ft | 469 kts | 317° |
| 2026-04-21 06:35 | -56.01268 | 168.66295 | 39191 ft | 469 kts | 318° |
| 2026-04-21 06:36 | -55.96022 | 168.59421 | 39195 ft | 468 kts | 318° |
| 2026-04-21 06:36 | -55.90795 | 168.52594 | 39192 ft | 468 kts | 318° |
| 2026-04-21 06:37 | -55.85601 | 168.45830 | 39198 ft | 466 kts | 317° |
| 2026-04-21 06:37 | -55.80391 | 168.39066 | 39201 ft | 468 kts | 317° |
| 2026-04-21 06:38 | -55.75131 | 168.32286 | 39203 ft | 469 kts | 319° |
| 2026-04-21 06:38 | -55.69830 | 168.25597 | 39202 ft | 472 kts | 319° |
| 2026-04-21 06:39 | -55.64525 | 168.18857 | 39216 ft | 471 kts | 319° |
| 2026-04-21 06:39 | -55.59221 | 168.12089 | 39209 ft | 470 kts | 318° |
| 2026-04-21 06:40 | -55.53984 | 168.05414 | 39223 ft | 469 kts | 318° |
| 2026-04-21 06:40 | -55.48707 | 167.98704 | 39219 ft | 470 kts | 318° |
| 2026-04-21 06:41 | -55.43418 | 167.92001 | 39218 ft | 470 kts | 318° |
| 2026-04-21 06:41 | -55.38108 | 167.85295 | 39230 ft | 473 kts | 318° |
| 2026-04-21 06:42 | -55.32773 | 167.78584 | 39232 ft | 473 kts | 318° |
| 2026-04-21 06:42 | -55.27448 | 167.71910 | 39240 ft | 471 kts | 318° |
| 2026-04-21 06:43 | -55.22096 | 167.65219 | 39237 ft | 472 kts | 319° |
| 2026-04-21 06:43 | -55.16745 | 167.58553 | 39241 ft | 473 kts | 319° |
| 2026-04-21 06:44 | -55.11377 | 167.51889 | 39243 ft | 473 kts | 318° |
| 2026-04-21 06:44 | -55.06002 | 167.45241 | 39245 ft | 472 kts | 319° |
| 2026-04-21 06:45 | -55.00654 | 167.38646 | 39246 ft | 473 kts | 319° |
| 2026-04-21 06:45 | -54.95287 | 167.32079 | 39251 ft | 475 kts | 320° |
| 2026-04-21 06:46 | -54.89829 | 167.25529 | 39250 ft | 474 kts | 320° |
| 2026-04-21 06:46 | -54.84431 | 167.19000 | 39254 ft | 474 kts | 320° |
| 2026-04-21 06:47 | -54.79005 | 167.12411 | 39260 ft | 476 kts | 320° |
| 2026-04-21 06:47 | -54.73613 | 167.05872 | 39263 ft | 476 kts | 319° |
| 2026-04-21 06:48 | -54.68183 | 166.99310 | 39263 ft | 474 kts | 319° |
| 2026-04-21 06:48 | -54.63717 | 166.93930 | 39277 ft | 474 kts | 319° |
| 2026-04-21 06:49 | -54.58266 | 166.87378 | 39273 ft | 476 kts | 319° |
| 2026-04-21 06:49 | -54.52867 | 166.80913 | 39277 ft | 478 kts | 319° |
| 2026-04-21 06:50 | -54.46508 | 166.73331 | 39270 ft | 475 kts | 319° |
| 2026-04-21 06:50 | -54.41099 | 166.66901 | 39291 ft | 476 kts | 319° |
| 2026-04-21 06:51 | -54.35684 | 166.60481 | 39285 ft | 478 kts | 319° |
| 2026-04-21 06:51 | -54.30217 | 166.54024 | 39295 ft | 478 kts | 320° |
| 2026-04-21 06:52 | -54.24764 | 166.47609 | 39296 ft | 476 kts | 319° |
| 2026-04-21 06:52 | -54.19327 | 166.41229 | 39301 ft | 478 kts | 319° |
| 2026-04-21 06:53 | -54.13864 | 166.34840 | 39298 ft | 478 kts | 320° |
| 2026-04-21 06:53 | -54.08314 | 166.28481 | 39312 ft | 481 kts | 321° |
| 2026-04-21 06:54 | -54.02796 | 166.22166 | 39307 ft | 481 kts | 320° |
| 2026-04-21 06:54 | -53.97291 | 166.15820 | 39303 ft | 481 kts | 320° |
| 2026-04-21 06:55 | -53.91775 | 166.09459 | 39311 ft | 480 kts | 320° |
| 2026-04-21 06:55 | -53.86309 | 166.03163 | 39319 ft | 482 kts | 320° |
| 2026-04-21 06:56 | -53.80757 | 165.96793 | 39331 ft | 482 kts | 320° |
| 2026-04-21 06:56 | -53.75247 | 165.90494 | 39320 ft | 481 kts | 320° |
| 2026-04-21 06:57 | -53.69709 | 165.84183 | 39328 ft | 483 kts | 320° |
| 2026-04-21 06:57 | -53.64185 | 165.77908 | 39320 ft | 480 kts | 320° |
| 2026-04-21 06:58 | -53.58668 | 165.71666 | 39321 ft | 479 kts | 320° |
| 2026-04-21 06:58 | -53.53152 | 165.65439 | 39324 ft | 481 kts | 320° |
| 2026-04-21 06:59 | -53.47605 | 165.59196 | 39329 ft | 482 kts | 320° |
| 2026-04-21 06:59 | -53.42055 | 165.52975 | 39330 ft | 482 kts | 320° |
| 2026-04-21 07:00 | -53.36489 | 165.46758 | 39330 ft | 481 kts | 320° |
| 2026-04-21 07:00 | -53.30964 | 165.40602 | 39335 ft | 480 kts | 320° |
| 2026-04-21 07:01 | -53.25423 | 165.34447 | 39350 ft | 482 kts | 321° |
| 2026-04-21 07:01 | -53.16982 | 165.25281 | 39337 ft | 481 kts | 322° |
| 2026-04-21 07:02 | -53.11444 | 165.19228 | 39336 ft | 483 kts | 321° |
| 2026-04-21 07:02 | -53.05843 | 165.13086 | 39347 ft | 484 kts | 321° |
| 2026-04-21 07:03 | -53.00247 | 165.06958 | 39341 ft | 483 kts | 321° |
| 2026-04-21 07:03 | -52.94664 | 165.00865 | 39340 ft | 482 kts | 321° |
| 2026-04-21 07:04 | -52.89080 | 164.94791 | 39340 ft | 482 kts | 321° |
| 2026-04-21 07:04 | -52.84432 | 164.89743 | 39340 ft | 483 kts | 321° |
| 2026-04-21 07:05 | -52.78839 | 164.83688 | 39353 ft | 483 kts | 321° |
| 2026-04-21 07:05 | -52.73213 | 164.77623 | 39385 ft | 483 kts | 321° |
| 2026-04-21 07:06 | -52.66653 | 164.70570 | 39374 ft | 484 kts | 321° |
| 2026-04-21 07:06 | -52.61039 | 164.64558 | 39362 ft | 485 kts | 321° |
| 2026-04-21 07:07 | -52.55410 | 164.58550 | 39374 ft | 483 kts | 321° |
| 2026-04-21 07:07 | -52.49794 | 164.52573 | 39386 ft | 485 kts | 321° |
| 2026-04-21 07:08 | -52.44128 | 164.46559 | 39366 ft | 485 kts | 321° |
| 2026-04-21 07:08 | -52.38501 | 164.40607 | 39375 ft | 485 kts | 321° |
| 2026-04-21 07:09 | -52.32848 | 164.34647 | 39384 ft | 483 kts | 322° |
| 2026-04-21 07:09 | -52.27158 | 164.28769 | 39370 ft | 487 kts | 322° |
| 2026-04-21 07:10 | -52.21457 | 164.22879 | 39377 ft | 487 kts | 322° |
| 2026-04-21 07:10 | -52.15781 | 164.16975 | 39381 ft | 487 kts | 322° |
| 2026-04-21 07:11 | -52.10077 | 164.11037 | 39381 ft | 486 kts | 322° |
| 2026-04-21 07:11 | -52.04403 | 164.05144 | 39396 ft | 487 kts | 322° |
| 2026-04-21 07:12 | -51.98703 | 163.99242 | 39392 ft | 487 kts | 322° |
| 2026-04-21 07:12 | -51.93015 | 163.93370 | 39404 ft | 488 kts | 322° |
| 2026-04-21 07:13 | -51.87326 | 163.87517 | 39394 ft | 487 kts | 322° |
| 2026-04-21 07:13 | -51.81619 | 163.81659 | 39391 ft | 487 kts | 322° |
| 2026-04-21 07:14 | -51.75927 | 163.75835 | 39398 ft | 489 kts | 322° |
| 2026-04-21 07:14 | -51.70213 | 163.70007 | 39394 ft | 488 kts | 322° |
| 2026-04-21 07:15 | -51.64481 | 163.64183 | 39388 ft | 489 kts | 322° |
| 2026-04-21 07:15 | -51.58756 | 163.58379 | 39389 ft | 490 kts | 322° |
| 2026-04-21 07:16 | -51.53015 | 163.52580 | 39385 ft | 489 kts | 322° |
| 2026-04-21 07:16 | -51.47306 | 163.46829 | 39381 ft | 489 kts | 322° |
| 2026-04-21 07:17 | -51.41539 | 163.41037 | 39385 ft | 490 kts | 322° |
| 2026-04-21 07:17 | -51.35728 | 163.35217 | 39388 ft | 490 kts | 322° |
| 2026-04-21 07:18 | -51.29874 | 163.29469 | 39395 ft | 489 kts | 323° |
| 2026-04-21 07:18 | -51.24122 | 163.23831 | 39404 ft | 492 kts | 323° |
| 2026-04-21 07:19 | -51.18286 | 163.18068 | 39403 ft | 492 kts | 323° |
| 2026-04-21 07:19 | -51.12468 | 163.12318 | 39412 ft | 490 kts | 323° |
| 2026-04-21 07:20 | -51.06648 | 163.06576 | 39402 ft | 492 kts | 323° |
| 2026-04-21 07:20 | -51.00846 | 163.00873 | 39405 ft | 490 kts | 324° |
| 2026-04-21 07:21 | -50.94832 | 162.95502 | 39418 ft | 491 kts | 323° |
| 2026-04-21 07:21 | -50.89015 | 162.89725 | 39416 ft | 493 kts | 323° |
| 2026-04-21 07:22 | -50.83173 | 162.84023 | 39403 ft | 492 kts | 324° |
| 2026-04-21 07:22 | -50.77354 | 162.78465 | 39422 ft | 493 kts | 324° |
| 2026-04-21 07:23 | -50.71465 | 162.72891 | 39407 ft | 494 kts | 324° |
| 2026-04-21 07:23 | -50.65615 | 162.67380 | 39411 ft | 491 kts | 324° |
| 2026-04-21 07:24 | -50.59904 | 162.62013 | 39402 ft | 491 kts | 324° |
| 2026-04-21 07:24 | -50.54097 | 162.56569 | 39408 ft | 493 kts | 324° |
| 2026-04-21 07:25 | -50.48137 | 162.51000 | 39421 ft | 493 kts | 324° |
| 2026-04-21 07:25 | -50.42191 | 162.45459 | 39424 ft | 493 kts | 324° |
| 2026-04-21 07:26 | -50.36237 | 162.39928 | 39411 ft | 494 kts | 324° |
| 2026-04-21 07:26 | -50.30291 | 162.34421 | 39415 ft | 494 kts | 325° |
| 2026-04-21 07:27 | -50.24365 | 162.29051 | 39418 ft | 493 kts | 326° |
| 2026-04-21 07:27 | -50.18378 | 162.23613 | 39436 ft | 495 kts | 326° |
| 2026-04-21 07:28 | -50.12415 | 162.18158 | 39426 ft | 494 kts | 326° |
| 2026-04-21 07:28 | -50.06531 | 162.12776 | 39425 ft | 493 kts | 325° |
| 2026-04-21 07:29 | -50.00619 | 162.07376 | 39430 ft | 495 kts | 325° |
| 2026-04-21 07:29 | -49.94740 | 162.02023 | 39434 ft | 495 kts | 326° |
| 2026-04-21 07:30 | -49.88847 | 161.96675 | 39434 ft | 494 kts | 325° |
| 2026-04-21 07:30 | -49.82961 | 161.91344 | 39434 ft | 493 kts | 326° |
| 2026-04-21 07:31 | -49.77062 | 161.86015 | 39427 ft | 496 kts | 326° |
| 2026-04-21 07:31 | -49.71158 | 161.80701 | 39435 ft | 496 kts | 326° |
| 2026-04-21 07:32 | -49.65180 | 161.75339 | 39424 ft | 496 kts | 326° |
| 2026-04-21 07:32 | -49.59275 | 161.70056 | 39426 ft | 494 kts | 326° |
| 2026-04-21 07:33 | -49.53321 | 161.64745 | 39428 ft | 494 kts | 326° |
| 2026-04-21 07:33 | -49.47381 | 161.59457 | 39435 ft | 494 kts | 326° |
| 2026-04-21 07:34 | -49.41399 | 161.54150 | 39434 ft | 494 kts | 326° |
| 2026-04-21 07:34 | -49.35426 | 161.48868 | 39445 ft | 494 kts | 326° |
| 2026-04-21 07:35 | -49.30447 | 161.44473 | 39430 ft | 496 kts | 326° |
| 2026-04-21 07:35 | -49.23429 | 161.38300 | 39444 ft | 494 kts | 326° |
| 2026-04-21 07:36 | -49.17424 | 161.33049 | 39433 ft | 496 kts | 327° |
| 2026-04-21 07:36 | -49.11415 | 161.27904 | 39452 ft | 495 kts | 327° |
| 2026-04-21 07:37 | -49.06399 | 161.23576 | 39444 ft | 496 kts | 327° |
| 2026-04-21 07:37 | -49.00853 | 161.18767 | 39455 ft | 495 kts | 327° |
| 2026-04-21 07:38 | -48.95126 | 161.13796 | 39446 ft | 495 kts | 327° |
| 2026-04-21 07:38 | -48.89151 | 161.08623 | 39438 ft | 495 kts | 327° |
| 2026-04-21 07:39 | -48.82182 | 161.02603 | 39434 ft | 496 kts | 327° |
| 2026-04-21 07:39 | -48.76211 | 160.97463 | 39436 ft | 497 kts | 327° |
| 2026-04-21 07:40 | -48.70218 | 160.92322 | 39437 ft | 496 kts | 327° |
| 2026-04-21 07:40 | -48.64197 | 160.87170 | 39438 ft | 496 kts | 327° |
| 2026-04-21 07:41 | -48.58241 | 160.82088 | 39439 ft | 496 kts | 327° |
| 2026-04-21 07:41 | -48.52234 | 160.76976 | 39455 ft | 497 kts | 327° |
| 2026-04-21 07:42 | -48.46199 | 160.71854 | 39451 ft | 497 kts | 327° |
| 2026-04-21 07:42 | -48.40178 | 160.66759 | 39452 ft | 497 kts | 327° |
| 2026-04-21 07:43 | -48.34189 | 160.61703 | 39452 ft | 497 kts | 327° |
| 2026-04-21 07:43 | -48.28215 | 160.56676 | 39452 ft | 498 kts | 327° |
| 2026-04-21 07:44 | -48.22210 | 160.51634 | 39452 ft | 498 kts | 327° |
| 2026-04-21 07:44 | -48.16207 | 160.46609 | 39451 ft | 496 kts | 327° |
| 2026-04-21 07:45 | -48.10230 | 160.41620 | 39452 ft | 500 kts | 327° |
| 2026-04-21 07:45 | -48.04178 | 160.36580 | 39450 ft | 498 kts | 327° |
| 2026-04-21 07:46 | -47.98115 | 160.31593 | 39450 ft | 498 kts | 329° |
| 2026-04-21 07:46 | -47.92006 | 160.26631 | 39449 ft | 499 kts | 329° |
| 2026-04-21 07:47 | -47.85881 | 160.21606 | 39448 ft | 500 kts | 328° |
| 2026-04-21 07:47 | -47.79803 | 160.16602 | 39451 ft | 502 kts | 328° |
| 2026-04-21 07:48 | -47.73651 | 160.11548 | 39454 ft | 502 kts | 328° |
| 2026-04-21 07:48 | -47.67507 | 160.06516 | 39452 ft | 500 kts | 328° |
| 2026-04-21 07:49 | -47.61390 | 160.01517 | 39449 ft | 500 kts | 328° |
| 2026-04-21 07:49 | -47.55263 | 159.96526 | 39456 ft | 500 kts | 328° |
| 2026-04-21 07:50 | -47.49091 | 159.91510 | 39454 ft | 501 kts | 329° |
| 2026-04-21 07:50 | -47.42943 | 159.86528 | 39459 ft | 501 kts | 328° |
| 2026-04-21 07:51 | -47.36877 | 159.81625 | 39457 ft | 501 kts | 329° |
| 2026-04-21 07:51 | -47.30740 | 159.76680 | 39458 ft | 501 kts | 329° |
| 2026-04-21 07:52 | -47.24625 | 159.71764 | 39456 ft | 500 kts | 329° |
| 2026-04-21 07:52 | -47.18557 | 159.66899 | 39451 ft | 501 kts | 329° |
| 2026-04-21 07:53 | -47.12466 | 159.62028 | 39449 ft | 502 kts | 329° |
| 2026-04-21 07:53 | -47.06386 | 159.57179 | 39449 ft | 501 kts | 329° |
| 2026-04-21 07:54 | -47.00307 | 159.52344 | 39450 ft | 501 kts | 329° |
| 2026-04-21 07:54 | -46.94297 | 159.47575 | 39451 ft | 501 kts | 329° |
| 2026-04-21 07:55 | -46.88185 | 159.42740 | 39445 ft | 501 kts | 329° |
| 2026-04-21 07:55 | -46.82178 | 159.37996 | 39447 ft | 501 kts | 329° |
| 2026-04-21 07:56 | -46.76166 | 159.33275 | 39455 ft | 501 kts | 330° |
| 2026-04-21 07:56 | -46.69993 | 159.28528 | 39459 ft | 502 kts | 330° |
| 2026-04-21 07:57 | -46.63877 | 159.23787 | 39458 ft | 504 kts | 330° |
| 2026-04-21 07:57 | -46.57726 | 159.18994 | 39459 ft | 503 kts | 329° |
| 2026-04-21 07:58 | -46.51574 | 159.14201 | 39451 ft | 502 kts | 330° |
| 2026-04-21 07:58 | -46.45407 | 159.09407 | 39449 ft | 501 kts | 330° |
| 2026-04-21 07:59 | -46.40351 | 159.05487 | 39447 ft | 502 kts | 330° |
| 2026-04-21 07:59 | -46.33134 | 158.99905 | 39441 ft | 502 kts | 330° |
| 2026-04-21 08:00 | -46.26975 | 158.95157 | 39445 ft | 503 kts | 330° |
| 2026-04-21 08:00 | -46.20851 | 158.90448 | 39440 ft | 502 kts | 329° |
| 2026-04-21 08:01 | -46.15739 | 158.86523 | 39443 ft | 501 kts | 330° |
| 2026-04-21 08:02 | -46.05462 | 158.78662 | 39444 ft | 503 kts | 330° |
| 2026-04-21 08:02 | -45.99321 | 158.73981 | 39438 ft | 503 kts | 330° |
| 2026-04-21 08:03 | -45.93150 | 158.69289 | 39437 ft | 503 kts | 330° |
| 2026-04-21 08:03 | -45.86982 | 158.64610 | 39434 ft | 504 kts | 330° |
| 2026-04-21 08:04 | -45.80792 | 158.59924 | 39434 ft | 503 kts | 330° |
| 2026-04-21 08:04 | -45.74784 | 158.55389 | 39440 ft | 503 kts | 330° |
| 2026-04-21 08:05 | -45.68657 | 158.50777 | 39435 ft | 502 kts | 330° |
| 2026-04-21 08:05 | -45.62462 | 158.46126 | 39443 ft | 504 kts | 330° |
| 2026-04-21 08:06 | -45.56245 | 158.41469 | 39435 ft | 504 kts | 330° |
| 2026-04-21 08:06 | -45.50064 | 158.36852 | 39435 ft | 503 kts | 330° |
| 2026-04-21 08:07 | -45.43838 | 158.32246 | 39441 ft | 504 kts | 331° |
| 2026-04-21 08:07 | -45.37530 | 158.27649 | 39446 ft | 503 kts | 331° |
| 2026-04-21 08:08 | -45.31310 | 158.23073 | 39436 ft | 504 kts | 331° |
| 2026-04-21 08:08 | -45.25056 | 158.18451 | 39435 ft | 504 kts | 331° |
| 2026-04-21 08:09 | -45.19260 | 158.14172 | 39430 ft | 505 kts | 331° |
| 2026-04-21 08:09 | -45.13087 | 158.09628 | 39437 ft | 502 kts | 331° |
| 2026-04-21 08:10 | -45.06892 | 158.05081 | 39429 ft | 500 kts | 331° |
| 2026-04-21 08:10 | -45.00749 | 158.00580 | 39426 ft | 503 kts | 331° |
| 2026-04-21 08:11 | -44.94569 | 157.96013 | 39426 ft | 501 kts | 330° |
| 2026-04-21 08:11 | -44.88411 | 157.91437 | 39412 ft | 499 kts | 330° |
| 2026-04-21 08:12 | -44.82283 | 157.86893 | 39426 ft | 502 kts | 330° |
| 2026-04-21 08:12 | -44.76328 | 157.82494 | 39436 ft | 503 kts | 330° |
| 2026-04-21 08:13 | -44.70136 | 157.77934 | 39427 ft | 503 kts | 330° |
| 2026-04-21 08:13 | -44.63958 | 157.73398 | 39430 ft | 503 kts | 330° |
| 2026-04-21 08:14 | -44.58016 | 157.69045 | 39419 ft | 503 kts | 330° |
| 2026-04-21 08:14 | -44.52031 | 157.64670 | 39429 ft | 502 kts | 330° |
| 2026-04-21 08:15 | -44.45821 | 157.60139 | 39418 ft | 503 kts | 330° |
| 2026-04-21 08:15 | -44.39656 | 157.55653 | 39426 ft | 504 kts | 330° |
| 2026-04-21 08:16 | -44.33396 | 157.51111 | 39422 ft | 505 kts | 330° |
| 2026-04-21 08:16 | -44.27213 | 157.46635 | 39421 ft | 503 kts | 330° |
| 2026-04-21 08:17 | -44.21010 | 157.42154 | 39414 ft | 505 kts | 330° |
| 2026-04-21 08:17 | -44.14764 | 157.37654 | 39412 ft | 503 kts | 330° |
| 2026-04-21 08:18 | -44.08537 | 157.33192 | 39406 ft | 503 kts | 331° |
| 2026-04-21 08:18 | -44.02323 | 157.28828 | 39408 ft | 505 kts | 331° |
| 2026-04-21 08:19 | -43.96062 | 157.24393 | 39401 ft | 504 kts | 331° |
| 2026-04-21 08:19 | -43.90857 | 157.20685 | 39416 ft | 506 kts | 331° |
| 2026-04-21 08:20 | -43.84582 | 157.16213 | 39397 ft | 506 kts | 330° |
| 2026-04-21 08:20 | -43.78338 | 157.11774 | 39395 ft | 506 kts | 330° |
| 2026-04-21 08:21 | -43.72121 | 157.07364 | 39405 ft | 506 kts | 330° |
| 2026-04-21 08:21 | -43.65834 | 157.02916 | 39415 ft | 506 kts | 331° |
| 2026-04-21 08:22 | -43.58531 | 156.97765 | 39410 ft | 506 kts | 330° |
| 2026-04-21 08:22 | -43.52246 | 156.93343 | 39416 ft | 507 kts | 330° |
| 2026-04-21 08:23 | -43.45990 | 156.88950 | 39421 ft | 507 kts | 330° |
| 2026-04-21 08:23 | -43.39711 | 156.84554 | 39413 ft | 506 kts | 330° |
| 2026-04-21 08:24 | -43.33425 | 156.80160 | 39420 ft | 505 kts | 330° |
| 2026-04-21 08:24 | -43.27183 | 156.75809 | 39420 ft | 507 kts | 330° |
| 2026-04-21 08:25 | -43.20878 | 156.71423 | 39416 ft | 508 kts | 330° |
| 2026-04-21 08:25 | -43.14587 | 156.67059 | 39424 ft | 508 kts | 330° |
| 2026-04-21 08:26 | -43.08257 | 156.62677 | 39402 ft | 508 kts | 330° |
| 2026-04-21 08:26 | -43.01948 | 156.58321 | 39422 ft | 509 kts | 330° |
| 2026-04-21 08:27 | -42.95645 | 156.53978 | 39388 ft | 510 kts | 330° |
| 2026-04-21 08:27 | -42.89346 | 156.49649 | 39394 ft | 508 kts | 330° |
| 2026-04-21 08:28 | -42.83025 | 156.45309 | 39406 ft | 507 kts | 330° |
| 2026-04-21 08:28 | -42.76715 | 156.40990 | 39417 ft | 510 kts | 330° |
| 2026-04-21 08:29 | -42.70365 | 156.36656 | 39388 ft | 508 kts | 330° |
| 2026-04-21 08:29 | -42.64039 | 156.32379 | 39388 ft | 510 kts | 332° |
| 2026-04-21 08:30 | -42.57684 | 156.28143 | 39390 ft | 509 kts | 332° |
| 2026-04-21 08:30 | -42.51372 | 156.23894 | 39384 ft | 510 kts | 331° |
| 2026-04-21 08:31 | -42.44999 | 156.19589 | 39396 ft | 511 kts | 331° |
| 2026-04-21 08:31 | -42.38624 | 156.15285 | 39360 ft | 511 kts | 331° |
| 2026-04-21 08:32 | -42.32262 | 156.10998 | 39395 ft | 511 kts | 331° |
| 2026-04-21 08:32 | -42.25856 | 156.06694 | 39366 ft | 512 kts | 331° |
| 2026-04-21 08:33 | -42.19496 | 156.02432 | 39384 ft | 511 kts | 331° |
| 2026-04-21 08:33 | -42.13119 | 155.98167 | 39386 ft | 513 kts | 331° |
| 2026-04-21 08:34 | -42.06726 | 155.93900 | 39372 ft | 514 kts | 331° |
| 2026-04-21 08:34 | -42.00307 | 155.89627 | 39380 ft | 514 kts | 330° |
| 2026-04-21 08:35 | -41.93892 | 155.85365 | 39380 ft | 513 kts | 330° |
| 2026-04-21 08:35 | -41.87520 | 155.81142 | 39387 ft | 514 kts | 330° |
| 2026-04-21 08:36 | -41.81094 | 155.76889 | 39400 ft | 515 kts | 331° |
| 2026-04-21 08:36 | -41.74668 | 155.72649 | 39393 ft | 514 kts | 331° |
| 2026-04-21 08:37 | -41.68277 | 155.68442 | 39380 ft | 513 kts | 330° |
| 2026-04-21 08:37 | -41.61834 | 155.64208 | 39394 ft | 515 kts | 330° |
| 2026-04-21 08:38 | -41.55442 | 155.60019 | 39385 ft | 514 kts | 331° |
| 2026-04-21 08:38 | -41.49022 | 155.55823 | 39386 ft | 513 kts | 330° |
| 2026-04-21 08:39 | -41.42606 | 155.51636 | 39384 ft | 514 kts | 330° |
| 2026-04-21 08:39 | -41.36195 | 155.47463 | 39375 ft | 513 kts | 330° |
| 2026-04-21 08:40 | -41.29779 | 155.43294 | 39371 ft | 514 kts | 330° |
| 2026-04-21 08:40 | -41.23329 | 155.39114 | 39388 ft | 513 kts | 330° |
| 2026-04-21 08:41 | -41.16944 | 155.34985 | 39383 ft | 514 kts | 331° |
| 2026-04-21 08:41 | -41.10469 | 155.30872 | 39378 ft | 515 kts | 332° |
| 2026-04-21 08:42 | -41.04031 | 155.26787 | 39383 ft | 515 kts | 332° |
| 2026-04-21 08:42 | -40.97572 | 155.22653 | 39384 ft | 514 kts | 331° |
| 2026-04-21 08:43 | -40.91180 | 155.18555 | 39377 ft | 515 kts | 331° |
| 2026-04-21 08:43 | -40.84742 | 155.14433 | 39380 ft | 514 kts | 331° |
| 2026-04-21 08:44 | -40.78503 | 155.10449 | 39380 ft | 513 kts | 331° |
| 2026-04-21 08:44 | -40.72076 | 155.06354 | 39376 ft | 515 kts | 331° |
| 2026-04-21 08:45 | -40.65677 | 155.02286 | 39382 ft | 515 kts | 331° |
| 2026-04-21 08:45 | -40.59433 | 154.98326 | 39378 ft | 514 kts | 331° |
| 2026-04-21 08:46 | -40.52948 | 154.94222 | 39375 ft | 514 kts | 331° |
| 2026-04-21 08:46 | -40.46544 | 154.90176 | 39378 ft | 514 kts | 331° |
| 2026-04-21 08:47 | -40.40081 | 154.86104 | 39379 ft | 513 kts | 331° |
| 2026-04-21 08:47 | -40.33693 | 154.82088 | 39373 ft | 513 kts | 331° |
| 2026-04-21 08:48 | -40.27246 | 154.78041 | 39391 ft | 514 kts | 331° |
| 2026-04-21 08:48 | -40.20802 | 154.74007 | 39370 ft | 512 kts | 331° |
| 2026-04-21 08:49 | -40.14381 | 154.69995 | 39385 ft | 511 kts | 331° |
| 2026-04-21 08:49 | -40.07973 | 154.65997 | 39367 ft | 513 kts | 331° |
| 2026-04-21 08:50 | -40.01523 | 154.61984 | 39376 ft | 512 kts | 331° |
| 2026-04-21 08:50 | -39.95079 | 154.57983 | 39371 ft | 512 kts | 331° |
| 2026-04-21 08:51 | -39.88632 | 154.53989 | 39370 ft | 513 kts | 331° |
| 2026-04-21 08:51 | -39.82216 | 154.50020 | 39363 ft | 511 kts | 331° |
| 2026-04-21 08:52 | -39.76859 | 154.46712 | 39352 ft | 511 kts | 331° |
| 2026-04-21 08:52 | -39.70465 | 154.42772 | 39357 ft | 511 kts | 331° |
| 2026-04-21 08:53 | -39.64016 | 154.38809 | 39351 ft | 511 kts | 331° |
| 2026-04-21 08:53 | -39.57609 | 154.34878 | 39341 ft | 511 kts | 331° |
| 2026-04-21 08:54 | -39.51147 | 154.30988 | 39349 ft | 512 kts | 332° |
| 2026-04-21 08:54 | -39.44701 | 154.27104 | 39347 ft | 510 kts | 332° |
| 2026-04-21 08:55 | -39.38280 | 154.23204 | 39351 ft | 510 kts | 331° |
| 2026-04-21 08:55 | -39.30831 | 154.18672 | 39354 ft | 510 kts | 331° |
| 2026-04-21 08:56 | -39.24369 | 154.14749 | 39349 ft | 509 kts | 331° |
| 2026-04-21 08:56 | -39.17998 | 154.10889 | 39356 ft | 509 kts | 332° |
| 2026-04-21 08:57 | -39.11587 | 154.07014 | 39356 ft | 507 kts | 332° |
| 2026-04-21 08:57 | -39.05187 | 154.03152 | 39367 ft | 507 kts | 331° |
| 2026-04-21 08:58 | -38.98714 | 153.99507 | 39378 ft | 508 kts | 338° |
| 2026-04-21 08:58 | -38.92030 | 153.96657 | 39374 ft | 510 kts | 339° |
| 2026-04-21 08:59 | -38.85234 | 153.93852 | 39354 ft | 508 kts | 339° |
| 2026-04-21 08:59 | -38.78515 | 153.91077 | 39391 ft | 509 kts | 339° |
| 2026-04-21 09:00 | -38.71785 | 153.88290 | 39369 ft | 508 kts | 339° |
| 2026-04-21 09:00 | -38.65104 | 153.85529 | 39374 ft | 507 kts | 339° |
| 2026-04-21 09:01 | -38.58368 | 153.82747 | 39366 ft | 508 kts | 339° |
| 2026-04-21 09:01 | -38.51644 | 153.79976 | 39367 ft | 510 kts | 339° |
| 2026-04-21 09:02 | -38.44865 | 153.77190 | 39376 ft | 509 kts | 339° |
| 2026-04-21 09:02 | -38.38117 | 153.74423 | 39365 ft | 507 kts | 338° |
| 2026-04-21 09:03 | -38.28002 | 153.70282 | 39378 ft | 507 kts | 338° |
| 2026-04-21 09:03 | -38.21273 | 153.67534 | 39362 ft | 506 kts | 339° |
| 2026-04-21 09:04 | -38.14733 | 153.64870 | 39362 ft | 506 kts | 338° |
| 2026-04-21 09:04 | -38.08032 | 153.62143 | 39362 ft | 506 kts | 338° |
| 2026-04-21 09:05 | -38.01337 | 153.59427 | 39370 ft | 505 kts | 338° |
| 2026-04-21 09:05 | -37.94691 | 153.56734 | 39358 ft | 505 kts | 338° |
| 2026-04-21 09:06 | -37.87978 | 153.54018 | 39358 ft | 505 kts | 338° |
| 2026-04-21 09:06 | -37.82420 | 153.51773 | 39370 ft | 505 kts | 338° |
| 2026-04-21 09:07 | -37.75683 | 153.49059 | 39355 ft | 505 kts | 338° |
| 2026-04-21 09:07 | -37.69007 | 153.46373 | 39359 ft | 504 kts | 338° |
| 2026-04-21 09:08 | -37.62561 | 153.43785 | 39356 ft | 504 kts | 338° |
| 2026-04-21 09:08 | -37.55906 | 153.41119 | 39352 ft | 502 kts | 338° |
| 2026-04-21 09:09 | -37.49246 | 153.38455 | 39359 ft | 502 kts | 338° |
| 2026-04-21 09:09 | -37.42578 | 153.35792 | 39341 ft | 502 kts | 338° |
| 2026-04-21 09:10 | -37.35911 | 153.33168 | 39346 ft | 503 kts | 339° |
| 2026-04-21 09:10 | -37.28101 | 153.30129 | 39343 ft | 503 kts | 339° |
| 2026-04-21 09:11 | -37.21428 | 153.27499 | 39347 ft | 503 kts | 339° |
| 2026-04-21 09:11 | -37.14777 | 153.24866 | 39358 ft | 503 kts | 339° |
| 2026-04-21 09:12 | -37.08080 | 153.22217 | 39351 ft | 503 kts | 338° |
| 2026-04-21 09:12 | -37.01440 | 153.19597 | 39348 ft | 502 kts | 339° |
| 2026-04-21 09:13 | -36.94887 | 153.17015 | 39343 ft | 502 kts | 338° |
| 2026-04-21 09:13 | -36.88479 | 153.14494 | 39337 ft | 502 kts | 338° |
| 2026-04-21 09:14 | -36.81760 | 153.11855 | 39332 ft | 501 kts | 339° |
| 2026-04-21 09:14 | -36.78430 | 153.10548 | 39220 ft | 503 kts | 339° |
| 2026-04-21 09:14 | -36.75107 | 153.09245 | 38889 ft | 506 kts | 339° |
| 2026-04-21 09:15 | -36.71782 | 153.07945 | 38476 ft | 502 kts | 339° |
| 2026-04-21 09:15 | -36.68457 | 153.06648 | 38060 ft | 494 kts | 339° |
| 2026-04-21 09:15 | -36.65219 | 153.05386 | 37642 ft | 487 kts | 338° |
| 2026-04-21 09:15 | -36.61978 | 153.04125 | 37223 ft | 481 kts | 338° |
| 2026-04-21 09:16 | -36.58791 | 153.02879 | 36809 ft | 478 kts | 338° |
| 2026-04-21 09:16 | -36.55586 | 153.01628 | 36382 ft | 476 kts | 338° |
| 2026-04-21 09:16 | -36.52434 | 153.00400 | 35966 ft | 474 kts | 338° |
| 2026-04-21 09:16 | -36.49291 | 152.99176 | 35553 ft | 471 kts | 338° |
| 2026-04-21 09:17 | -36.46134 | 152.97951 | 35135 ft | 468 kts | 338° |
| 2026-04-21 09:17 | -36.43034 | 152.96747 | 34716 ft | 465 kts | 338° |
| 2026-04-21 09:17 | -36.40015 | 152.95577 | 34312 ft | 463 kts | 338° |
| 2026-04-21 09:17 | -36.36967 | 152.94394 | 33921 ft | 460 kts | 338° |
| 2026-04-21 09:18 | -36.33937 | 152.93221 | 33544 ft | 457 kts | 338° |
| 2026-04-21 09:18 | -36.30889 | 152.92041 | 33162 ft | 455 kts | 338° |
| 2026-04-21 09:18 | -36.27895 | 152.90883 | 32785 ft | 453 kts | 339° |
| 2026-04-21 09:18 | -36.24909 | 152.89729 | 32408 ft | 451 kts | 339° |
| 2026-04-21 09:19 | -36.22879 | 152.88947 | 32152 ft | 449 kts | 339° |
| 2026-04-21 09:19 | -36.18929 | 152.87424 | 31650 ft | 447 kts | 339° |
| 2026-04-21 09:19 | -36.15972 | 152.86284 | 31271 ft | 444 kts | 339° |
| 2026-04-21 09:19 | -36.13021 | 152.85149 | 30892 ft | 442 kts | 339° |
| 2026-04-21 09:20 | -36.10102 | 152.84026 | 30517 ft | 441 kts | 339° |
| 2026-04-21 09:20 | -36.07184 | 152.82903 | 30140 ft | 439 kts | 339° |
| 2026-04-21 09:20 | -36.04273 | 152.81786 | 29753 ft | 436 kts | 339° |
| 2026-04-21 09:20 | -36.01380 | 152.80675 | 29365 ft | 432 kts | 339° |
| 2026-04-21 09:21 | -35.99488 | 152.79950 | 29110 ft | 430 kts | 339° |
| 2026-04-21 09:21 | -35.95685 | 152.78493 | 28597 ft | 426 kts | 339° |
| 2026-04-21 09:21 | -35.93833 | 152.77783 | 28346 ft | 425 kts | 339° |
| 2026-04-21 09:21 | -35.90092 | 152.76352 | 27838 ft | 421 kts | 339° |
| 2026-04-21 09:22 | -35.87285 | 152.75278 | 27431 ft | 418 kts | 339° |
| 2026-04-21 09:22 | -35.84510 | 152.74219 | 27127 ft | 414 kts | 339° |
| 2026-04-21 09:22 | -35.82697 | 152.73526 | 26925 ft | 413 kts | 339° |
| 2026-04-21 09:22 | -35.79041 | 152.72130 | 26520 ft | 412 kts | 340° |
| 2026-04-21 09:23 | -35.77218 | 152.71436 | 26319 ft | 411 kts | 340° |
| 2026-04-21 09:23 | -35.73595 | 152.70055 | 25915 ft | 408 kts | 340° |
| 2026-04-21 09:23 | -35.71780 | 152.69365 | 25711 ft | 406 kts | 340° |
| 2026-04-21 09:23 | -35.68189 | 152.67998 | 25306 ft | 403 kts | 340° |
| 2026-04-21 09:24 | -35.66397 | 152.67317 | 25104 ft | 402 kts | 340° |
| 2026-04-21 09:24 | -35.62867 | 152.65977 | 24703 ft | 399 kts | 340° |
| 2026-04-21 09:24 | -35.61093 | 152.65305 | 24500 ft | 398 kts | 340° |
| 2026-04-21 09:24 | -35.57544 | 152.63957 | 24090 ft | 395 kts | 340° |
| 2026-04-21 09:25 | -35.55800 | 152.63297 | 23891 ft | 394 kts | 340° |
| 2026-04-21 09:25 | -35.52268 | 152.61958 | 23494 ft | 391 kts | 341° |
| 2026-04-21 09:25 | -35.50547 | 152.61307 | 23366 ft | 389 kts | 341° |
| 2026-04-21 09:25 | -35.47056 | 152.59987 | 23097 ft | 388 kts | 341° |
| 2026-04-21 09:26 | -35.44452 | 152.59003 | 22897 ft | 387 kts | 341° |
| 2026-04-21 09:26 | -35.41883 | 152.58032 | 22773 ft | 384 kts | 341° |
| 2026-04-21 09:26 | -35.39322 | 152.57066 | 22650 ft | 384 kts | 341° |
| 2026-04-21 09:26 | -35.36721 | 152.56084 | 22527 ft | 384 kts | 341° |
| 2026-04-21 09:27 | -35.34171 | 152.55124 | 22409 ft | 382 kts | 341° |
| 2026-04-21 09:27 | -35.31595 | 152.54152 | 22291 ft | 393 kts | 341° |
| 2026-04-21 09:27 | -35.28852 | 152.53117 | 22167 ft | 417 kts | 341° |
| 2026-04-21 09:27 | -35.25990 | 152.52039 | 21999 ft | 426 kts | 341° |
| 2026-04-21 09:28 | -35.23174 | 152.50981 | 21773 ft | 418 kts | 341° |
| 2026-04-21 09:28 | -35.20391 | 152.49939 | 21548 ft | 412 kts | 341° |
| 2026-04-21 09:28 | -35.17635 | 152.48904 | 21328 ft | 412 kts | 341° |
| 2026-04-21 09:28 | -35.14865 | 152.47865 | 21104 ft | 411 kts | 341° |
| 2026-04-21 09:29 | -35.12126 | 152.46838 | 20887 ft | 408 kts | 341° |
| 2026-04-21 09:29 | -35.09365 | 152.45805 | 20661 ft | 407 kts | 341° |
| 2026-04-21 09:29 | -35.06650 | 152.44789 | 20442 ft | 405 kts | 341° |
| 2026-04-21 09:29 | -35.03944 | 152.43777 | 20218 ft | 404 kts | 341° |
| 2026-04-21 09:30 | -35.01216 | 152.42757 | 19998 ft | 403 kts | 341° |
| 2026-04-21 09:30 | -34.98522 | 152.41751 | 19777 ft | 400 kts | 341° |
| 2026-04-21 09:30 | -34.95857 | 152.40756 | 19555 ft | 399 kts | 342° |
| 2026-04-21 09:30 | -34.93180 | 152.39758 | 19334 ft | 398 kts | 342° |
| 2026-04-21 09:31 | -34.90504 | 152.38760 | 19113 ft | 395 kts | 342° |
| 2026-04-21 09:31 | -34.87857 | 152.37775 | 18895 ft | 393 kts | 342° |
| 2026-04-21 09:31 | -34.85242 | 152.36801 | 18675 ft | 392 kts | 342° |
| 2026-04-21 09:31 | -34.82653 | 152.35838 | 18459 ft | 390 kts | 342° |
| 2026-04-21 09:32 | -34.80064 | 152.34876 | 18241 ft | 388 kts | 342° |
| 2026-04-21 09:32 | -34.77481 | 152.33934 | 18024 ft | 387 kts | 343° |
| 2026-04-21 09:32 | -34.74887 | 152.32994 | 17806 ft | 386 kts | 343° |
| 2026-04-21 09:32 | -34.72315 | 152.32051 | 17591 ft | 385 kts | 342° |
| 2026-04-21 09:33 | -34.69709 | 152.31090 | 17372 ft | 383 kts | 342° |
| 2026-04-21 09:33 | -34.67180 | 152.30153 | 17157 ft | 382 kts | 342° |
| 2026-04-21 09:33 | -34.64624 | 152.29205 | 16941 ft | 382 kts | 342° |
| 2026-04-21 09:33 | -34.62044 | 152.28250 | 16722 ft | 380 kts | 342° |
| 2026-04-21 09:34 | -34.59517 | 152.27316 | 16505 ft | 379 kts | 342° |
| 2026-04-21 09:34 | -34.56980 | 152.26378 | 16289 ft | 377 kts | 342° |
| 2026-04-21 09:34 | -34.54446 | 152.25441 | 16070 ft | 376 kts | 342° |
| 2026-04-21 09:34 | -34.51939 | 152.24516 | 15854 ft | 375 kts | 342° |
| 2026-04-21 09:35 | -34.49408 | 152.23583 | 15634 ft | 373 kts | 342° |
| 2026-04-21 09:35 | -34.46928 | 152.22669 | 15346 ft | 375 kts | 342° |
| 2026-04-21 09:35 | -34.44424 | 152.21745 | 14993 ft | 371 kts | 343° |
| 2026-04-21 09:35 | -34.41953 | 152.20834 | 14643 ft | 368 kts | 343° |
| 2026-04-21 09:36 | -34.39506 | 152.19934 | 14294 ft | 367 kts | 343° |
| 2026-04-21 09:36 | -34.37866 | 152.19331 | 14059 ft | 364 kts | 343° |
| 2026-04-21 09:36 | -34.34608 | 152.18133 | 13590 ft | 362 kts | 343° |
| 2026-04-21 09:36 | -34.32175 | 152.17239 | 13234 ft | 359 kts | 343° |
| 2026-04-21 09:37 | -34.29781 | 152.16360 | 12881 ft | 357 kts | 343° |
| 2026-04-21 09:37 | -34.27373 | 152.15477 | 12524 ft | 356 kts | 343° |
| 2026-04-21 09:37 | -34.24994 | 152.14604 | 12169 ft | 354 kts | 343° |
| 2026-04-21 09:37 | -34.22604 | 152.13728 | 11812 ft | 352 kts | 343° |
| 2026-04-21 09:38 | -34.20249 | 152.12866 | 11460 ft | 350 kts | 343° |
| 2026-04-21 09:38 | -34.17903 | 152.12007 | 11107 ft | 348 kts | 343° |
| 2026-04-21 09:38 | -34.15601 | 152.11165 | 10758 ft | 344 kts | 343° |
| 2026-04-21 09:38 | -34.13295 | 152.10321 | 10403 ft | 338 kts | 343° |
| 2026-04-21 09:39 | -34.11050 | 152.09502 | 10080 ft | 332 kts | 343° |
| 2026-04-21 09:39 | -34.08856 | 152.08701 | 9947 ft | 320 kts | 343° |
| 2026-04-21 09:39 | -34.06743 | 152.07925 | 9916 ft | 308 kts | 342° |
| 2026-04-21 09:39 | -34.05428 | 152.07263 | 9906 ft | 306 kts | 327° |
| 2026-04-21 09:40 | -34.03563 | 152.04748 | 9667 ft | 306 kts | 290° |
| 2026-04-21 09:40 | -34.03018 | 152.02284 | 9389 ft | 297 kts | 276° |
| 2026-04-21 09:40 | -34.02747 | 151.99832 | 9139 ft | 294 kts | 273° |
| 2026-04-21 09:40 | -34.02593 | 151.98202 | 8974 ft | 293 kts | 273° |
| 2026-04-21 09:41 | -34.02280 | 151.94939 | 8644 ft | 291 kts | 274° |
| 2026-04-21 09:41 | -34.02119 | 151.93311 | 8477 ft | 290 kts | 274° |
| 2026-04-21 09:41 | -34.01712 | 151.90079 | 8145 ft | 290 kts | 276° |
| 2026-04-21 09:41 | -34.01503 | 151.88506 | 7984 ft | 289 kts | 276° |
| 2026-04-21 09:42 | -34.01081 | 151.85327 | 7649 ft | 286 kts | 276° |
| 2026-04-21 09:42 | -34.00871 | 151.83734 | 7483 ft | 285 kts | 276° |
| 2026-04-21 09:42 | -34.00482 | 151.80756 | 7180 ft | 284 kts | 276° |
| 2026-04-21 09:42 | -34.00279 | 151.79187 | 7053 ft | 282 kts | 276° |
| 2026-04-21 09:43 | -33.99875 | 151.76077 | 6839 ft | 282 kts | 276° |
| 2026-04-21 09:43 | -33.99572 | 151.73744 | 6686 ft | 282 kts | 276° |
| 2026-04-21 09:43 | -33.99266 | 151.71405 | 6528 ft | 281 kts | 276° |
| 2026-04-21 09:43 | -33.98959 | 151.69072 | 6367 ft | 281 kts | 276° |
| 2026-04-21 09:44 | -33.98657 | 151.66760 | 6207 ft | 279 kts | 276° |
| 2026-04-21 09:44 | -33.98359 | 151.64435 | 6046 ft | 279 kts | 275° |
| 2026-04-21 09:44 | -33.98083 | 151.62096 | 5950 ft | 278 kts | 275° |
| 2026-04-21 09:44 | -33.97809 | 151.59752 | 5930 ft | 278 kts | 275° |
| 2026-04-21 09:45 | -33.97538 | 151.57437 | 5928 ft | 279 kts | 275° |
| 2026-04-21 09:45 | -33.97265 | 151.55101 | 5924 ft | 277 kts | 275° |
| 2026-04-21 09:45 | -33.96995 | 151.52830 | 5921 ft | 268 kts | 275° |
| 2026-04-21 09:45 | -33.96728 | 151.50598 | 5923 ft | 269 kts | 275° |
| 2026-04-21 09:46 | -33.96465 | 151.48367 | 5931 ft | 268 kts | 275° |
| 2026-04-21 09:46 | -33.96202 | 151.46118 | 5934 ft | 268 kts | 275° |
| 2026-04-21 09:46 | -33.95942 | 151.43872 | 5934 ft | 268 kts | 275° |
| 2026-04-21 09:46 | -33.95728 | 151.41681 | 5925 ft | 263 kts | 273° |
| 2026-04-21 09:47 | -33.95534 | 151.39496 | 5930 ft | 257 kts | 272° |
| 2026-04-21 09:47 | -33.95088 | 151.37399 | 5930 ft | 262 kts | 298° |
| 2026-04-21 09:47 | -33.93819 | 151.35861 | 5933 ft | 266 kts | 330° |
| 2026-04-21 09:47 | -33.92161 | 151.34933 | 5934 ft | 267 kts | 338° |
| 2026-04-21 09:48 | -33.90410 | 151.34108 | 5936 ft | 266 kts | 340° |
| 2026-04-21 09:48 | -33.88702 | 151.33344 | 5931 ft | 257 kts | 341° |
| 2026-04-21 09:48 | -33.87010 | 151.32671 | 5941 ft | 255 kts | 343° |
| 2026-04-21 09:48 | -33.85309 | 151.32016 | 5950 ft | 254 kts | 343° |
| 2026-04-21 09:49 | -33.83643 | 151.31377 | 5864 ft | 256 kts | 343° |
| 2026-04-21 09:49 | -33.81925 | 151.30721 | 5617 ft | 259 kts | 343° |
| 2026-04-21 09:49 | -33.80190 | 151.30077 | 5217 ft | 258 kts | 344° |
| 2026-04-21 09:49 | -33.78486 | 151.29480 | 4815 ft | 257 kts | 345° |
| 2026-04-21 09:50 | -33.76773 | 151.28896 | 4412 ft | 256 kts | 344° |
| 2026-04-21 09:50 | -33.76183 | 151.28687 | 4274 ft | 255 kts | 343° |
| 2026-04-21 09:50 | -33.71744 | 151.26883 | 3272 ft | 250 kts | 337° |
| 2026-04-21 09:51 | -33.70184 | 151.25993 | 3039 ft | 238 kts | 331° |
| 2026-04-21 09:51 | -33.68901 | 151.24820 | 2954 ft | 225 kts | 317° |
| 2026-04-21 09:51 | -33.67836 | 151.23448 | 2937 ft | 223 kts | 307° |
| 2026-04-21 09:51 | -33.66922 | 151.21945 | 2914 ft | 223 kts | 298° |
| 2026-04-21 09:52 | -33.66296 | 151.20245 | 2924 ft | 218 kts | 280° |
| 2026-04-21 09:52 | -33.66073 | 151.18449 | 2935 ft | 217 kts | 269° |
| 2026-04-21 09:52 | -33.66204 | 151.16689 | 2933 ft | 210 kts | 248° |
| 2026-04-21 09:52 | -33.66997 | 151.15306 | 2935 ft | 199 kts | 212° |
| 2026-04-21 09:53 | -33.68164 | 151.14395 | 2939 ft | 197 kts | 208° |
| 2026-04-21 09:53 | -33.69340 | 151.13512 | 2940 ft | 197 kts | 208° |
| 2026-04-21 09:53 | -33.70488 | 151.12643 | 2954 ft | 185 kts | 207° |
| 2026-04-21 09:53 | -33.71673 | 151.12096 | 2941 ft | 182 kts | 186° |
| 2026-04-21 09:54 | -33.72906 | 151.12103 | 2945 ft | 178 kts | 173° |
| 2026-04-21 09:54 | -33.74128 | 151.12306 | 2933 ft | 171 kts | 169° |
| 2026-04-21 09:54 | -33.75294 | 151.12578 | 2937 ft | 170 kts | 167° |
| 2026-04-21 09:54 | -33.76466 | 151.12878 | 2941 ft | 170 kts | 167° |
| 2026-04-21 09:55 | -33.77232 | 151.13080 | 2942 ft | 169 kts | 166° |
| 2026-04-21 09:55 | -33.78796 | 151.13489 | 2783 ft | 166 kts | 167° |
| 2026-04-21 09:55 | -33.79539 | 151.13681 | 2733 ft | 165 kts | 166° |
| 2026-04-21 09:55 | -33.81073 | 151.14081 | 2410 ft | 165 kts | 166° |
| 2026-04-21 09:56 | -33.81813 | 151.14273 | 2246 ft | 162 kts | 167° |
| 2026-04-21 09:56 | -33.83259 | 151.14647 | 1945 ft | 152 kts | 166° |
| 2026-04-21 09:56 | -33.83935 | 151.14822 | 1791 ft | 143 kts | 166° |
| 2026-04-21 09:56 | -33.85201 | 151.15152 | 1468 ft | 133 kts | 167° |
| 2026-04-21 09:57 | -33.85804 | 151.15308 | 1382 ft | 129 kts | 167° |
| 2026-04-21 09:57 | -33.86961 | 151.15610 | 1177 ft | 126 kts | 167° |
| 2026-04-21 09:57 | -33.87538 | 151.15762 | 1064 ft | 125 kts | 167° |
| 2026-04-21 09:57 | -33.88669 | 151.16067 | 940 ft | 126 kts | 167° |
| 2026-04-21 09:58 | -33.89628 | 151.16315 | 1098 ft | 149 kts | 168° |
| 2026-04-21 09:58 | -33.90676 | 151.16566 | 1199 ft | 161 kts | 168° |
| 2026-04-21 09:58 | -33.91916 | 151.16864 | 1534 ft | 202 kts | 168° |
| 2026-04-21 09:58 | -33.93322 | 151.17198 | 1865 ft | 206 kts | 168° |
| 2026-04-21 09:59 | -33.94766 | 151.17539 | 2219 ft | 211 kts | 168° |
| 2026-04-21 09:59 | -33.96208 | 151.17839 | 2561 ft | 214 kts | 175° |
| 2026-04-21 09:59 | -33.97707 | 151.17697 | 2904 ft | 217 kts | 189° |
| 2026-04-21 09:59 | -33.99108 | 151.16962 | 3216 ft | 226 kts | 219° |
| 2026-04-21 10:00 | -34.00006 | 151.15407 | 3526 ft | 234 kts | 250° |
| 2026-04-21 10:00 | -34.00103 | 151.13448 | 3852 ft | 240 kts | 271° |
| 2026-04-21 10:00 | -33.99939 | 151.11435 | 4235 ft | 241 kts | 272° |
| 2026-04-21 10:00 | -33.99710 | 151.09413 | 4596 ft | 245 kts | 283° |
| 2026-04-21 10:01 | -33.98859 | 151.07611 | 4912 ft | 251 kts | 309° |
| 2026-04-21 10:01 | -33.97641 | 151.06105 | 5280 ft | 253 kts | 316° |
| 2026-04-21 10:01 | -33.96273 | 151.04752 | 5674 ft | 255 kts | 324° |
| 2026-04-21 10:01 | -33.94804 | 151.03577 | 6071 ft | 256 kts | 327° |
| 2026-04-21 10:02 | -33.91716 | 151.01189 | 5813 ft | 266 kts | 327° |
| 2026-04-21 10:02 | -33.90096 | 151.00150 | 5476 ft | 264 kts | 340° |
| 2026-04-21 10:02 | -33.88361 | 150.99445 | 5155 ft | 264 kts | 343° |
| 2026-04-21 10:03 | -33.86591 | 150.98798 | 4827 ft | 264 kts | 344° |
| 2026-04-21 10:03 | -33.84830 | 150.98184 | 4506 ft | 264 kts | 345° |
| 2026-04-21 10:03 | -33.83037 | 150.97566 | 4182 ft | 264 kts | 345° |
| 2026-04-21 10:03 | -33.81243 | 150.96994 | 3863 ft | 264 kts | 346° |
| 2026-04-21 10:04 | -33.79480 | 150.96457 | 3543 ft | 260 kts | 347° |
| 2026-04-21 10:04 | -33.77724 | 150.95921 | 3209 ft | 256 kts | 347° |
| 2026-04-21 10:04 | -33.76014 | 150.95456 | 3009 ft | 246 kts | 350° |
| 2026-04-21 10:04 | -33.74343 | 150.95136 | 2952 ft | 236 kts | 358° |
| 2026-04-21 10:05 | -33.72734 | 150.95250 | 2944 ft | 233 kts | 11° |
| 2026-04-21 10:05 | -33.71173 | 150.95783 | 2941 ft | 228 kts | 36° |
| 2026-04-21 10:05 | -33.69905 | 150.96924 | 2940 ft | 225 kts | 47° |
| 2026-04-21 10:05 | -33.68798 | 150.98250 | 2939 ft | 223 kts | 51° |
| 2026-04-21 10:06 | -33.67776 | 150.99632 | 2938 ft | 220 kts | 57° |
| 2026-04-21 10:06 | -33.67004 | 151.01193 | 2937 ft | 217 kts | 70° |
| 2026-04-21 10:06 | -33.66558 | 151.02889 | 2937 ft | 212 kts | 84° |
| 2026-04-21 10:06 | -33.66493 | 151.04649 | 2934 ft | 207 kts | 102° |
| 2026-04-21 10:07 | -33.66877 | 151.06316 | 2934 ft | 204 kts | 121° |
| 2026-04-21 10:07 | -33.67755 | 151.07631 | 2939 ft | 202 kts | 136° |
| 2026-04-21 10:07 | -33.68772 | 151.08813 | 2935 ft | 202 kts | 137° |
| 2026-04-21 10:07 | -33.69798 | 151.09958 | 2935 ft | 202 kts | 139° |
| 2026-04-21 10:08 | -33.70882 | 151.11052 | 2929 ft | 201 kts | 151° |
| 2026-04-21 10:08 | -33.72178 | 151.11678 | 2936 ft | 194 kts | 162° |
| 2026-04-21 10:08 | -33.73449 | 151.12097 | 2927 ft | 180 kts | 165° |
| 2026-04-21 10:08 | -33.74654 | 151.12430 | 2928 ft | 173 kts | 166° |
| 2026-04-21 10:09 | -33.75825 | 151.12732 | 2939 ft | 170 kts | 166° |
| 2026-04-21 10:09 | -33.76985 | 151.13029 | 2937 ft | 169 kts | 166° |
| 2026-04-21 10:09 | -33.78157 | 151.13332 | 2869 ft | 170 kts | 166° |
| 2026-04-21 10:09 | -33.79261 | 151.13615 | 2736 ft | 153 kts | 167° |
| 2026-04-21 10:10 | -33.80250 | 151.13870 | 2640 ft | 136 kts | 166° |
| 2026-04-21 10:10 | -33.80864 | 151.14029 | 2465 ft | 134 kts | 166° |
| 2026-04-21 10:10 | -33.82060 | 151.14339 | 2169 ft | 128 kts | 166° |
| 2026-04-21 10:10 | -33.82632 | 151.14487 | 2067 ft | 126 kts | 166° |
| 2026-04-21 10:11 | -33.83796 | 151.14789 | 1857 ft | 126 kts | 166° |
| 2026-04-21 10:11 | -33.84369 | 151.14937 | 1747 ft | 126 kts | 166° |
| 2026-04-21 10:11 | -33.85527 | 151.15237 | 1519 ft | 125 kts | 166° |
| 2026-04-21 10:11 | -33.86092 | 151.15384 | 1417 ft | 126 kts | 167° |
| 2026-04-21 10:12 | -33.87245 | 151.15681 | 1178 ft | 126 kts | 167° |
| 2026-04-21 10:12 | -33.87821 | 151.15832 | 1056 ft | 125 kts | 167° |
| 2026-04-21 10:12 | -33.88954 | 151.16132 | 851 ft | 124 kts | 167° |
| 2026-04-21 10:12 | -33.89536 | 151.16292 | 710 ft | 127 kts | 168° |
| 2026-04-21 10:13 | -33.90677 | 151.16576 | 521 ft | 124 kts | 168° |
| 2026-04-21 10:13 | -33.91241 | 151.16719 | 433 ft | 125 kts | 167° |
| 2026-04-21 10:13 | -33.92379 | 151.17012 | 197 ft | 124 kts | 168° |
| 2026-04-21 10:13 | -33.92948 | 151.17174 | 87 ft | 126 kts | 168° |
| 2026-04-21 10:14 | -33.94011 | 151.17439 | 27 ft | 88 kts | 167° |
| 2026-04-21 10:14 | -33.94311 | 151.17522 | 27 ft | 42 kts | 167° |
| 2026-04-21 10:14 | -33.94481 | 151.17567 | 27 ft | 29 kts | 168° |
| 2026-04-21 10:14 | -33.94646 | 151.17610 | 27 ft | 39 kts | 167° |
| 2026-04-21 10:15 | -33.95013 | 151.17647 | 27 ft | 36 kts | 188° |
| 2026-04-21 10:15 | -33.95137 | 151.17578 | 27 ft | 12 kts | 272° |
| 2026-04-21 10:15 | -33.95083 | 151.17519 | 27 ft | 11 kts | 338° |
| 2026-04-21 10:15 | -33.95011 | 151.17493 | 27 ft | 10 kts | 347° |
| 2026-04-21 10:16 | -33.95004 | 151.17491 | 27 ft | 0 kts | 347° |
| 2026-04-21 10:16 | -33.95003 | 151.17490 | 27 ft | 0 kts | 347° |
| 2026-04-21 10:17 | -33.94966 | 151.17480 | 27 ft | 12 kts | 347° |
| 2026-04-21 10:17 | -33.94839 | 151.17448 | 27 ft | 24 kts | 350° |
| 2026-04-21 10:17 | -33.94680 | 151.17409 | 27 ft | 22 kts | 348° |
| 2026-04-21 10:17 | -33.94520 | 151.17366 | 27 ft | 24 kts | 348° |
| 2026-04-21 10:18 | -33.94340 | 151.17317 | 27 ft | 27 kts | 347° |
| 2026-04-21 10:18 | -33.94160 | 151.17270 | 27 ft | 27 kts | 348° |
| 2026-04-21 10:18 | -33.93964 | 151.17219 | 27 ft | 30 kts | 348° |
| 2026-04-21 10:18 | -33.93768 | 151.17169 | 27 ft | 27 kts | 348° |
| 2026-04-21 10:19 | -33.93589 | 151.17123 | 27 ft | 10 kts | 348° |
| 2026-04-21 10:19 | -33.93528 | 151.17104 | 27 ft | 7 kts | 326° |
| 2026-04-21 10:19 | -33.93507 | 151.17047 | 27 ft | 8 kts | 265° |
| 2026-04-21 10:19 | -33.93512 | 151.16968 | 27 ft | 9 kts | 283° |
| 2026-04-21 10:20 | -33.93485 | 151.16927 | 27 ft | 1 kts | 324° |
| 2026-04-21 10:20 | -33.93472 | 151.16911 | 27 ft | 3 kts | 298° |
| 2026-04-21 10:20 | -33.93469 | 151.16873 | 27 ft | 5 kts | 264° |
| 2026-04-21 10:20 | -33.93476 | 151.16815 | 27 ft | 7 kts | 259° |
| 2026-04-21 10:21 | -33.93480 | 151.16795 | 27 ft | 0 kts | 258° |